Terminal Aerodrome Forecast
Issued by NWS St Louis, MO

Home | Current Version | Previous Version | Text Only | Print | Product List | Glossary On
Versions: 1 2 3 4 5 6 7 8 9 10 11 12 13 14 15 16 17 18 19 20 21 22
000
FTUS43 KLSX 032300
TAFCOU
TAF
KCOU 032330Z 0400/0424 17007KT P6SM SCT012 BKN100
      TEMPO 0400/0401 BKN012 BKN100
     FM040100 17006KT P6SM SCT120 BKN200
     FM040600 15005KT 5SM BR BKN100
      TEMPO 0408/0412 2SM BR
     FM041400 23006KT P6SM SCT030 BKN100=

USA.gov is the U.S. government's official web portal to all federal, state and local government web resources and services.